Time;durP1;ratioP1;P1;durP2;ratioP2;P2;SDS_P1;SDS_P2;PMS_P1;PMS_P2;Temp;Humidity;BMP_temperature;BMP_pressure;BME280_temperature;BME280_humidity;BME280_pressure;Samples;Min_cycle;Max_cycle;Signal;HPM_P1;HPM_P2
2022/07/01 00:00:10;;;;;;;17.00;8.85;;;13.20;99.90;;;;;;5078975;28;20101;-65
2022/07/01 00:02:39;;;;;;;15.80;9.00;;;13.20;99.90;;;;;;5079450;28;20045;-62
2022/07/01 00:05:05;;;;;;;13.13;8.68;;;13.10;99.90;;;;;;5078832;28;20066;-62
2022/07/01 00:07:49;;;;;;;14.52;8.77;;;13.20;99.90;;;;;;5061316;28;20422;-62
2022/07/01 00:10:15;;;;;;;16.98;8.77;;;13.10;99.90;;;;;;5078973;28;20029;-62
2022/07/01 00:12:41;;;;;;;18.20;9.30;;;13.20;99.90;;;;;;5078635;28;20020;-61
2022/07/01 00:15:09;;;;;;;17.50;9.45;;;13.20;99.90;;;;;;5061472;28;20094;-62
2022/07/01 00:17:35;;;;;;;17.02;9.27;;;13.10;99.90;;;;;;5078787;28;20116;-63
2022/07/01 00:20:02;;;;;;;14.45;8.30;;;13.20;99.90;;;;;;5078589;28;20094;-63
2022/07/01 00:22:28;;;;;;;17.88;8.73;;;13.10;99.90;;;;;;5060938;28;20029;-62
2022/07/01 00:24:54;;;;;;;17.85;8.85;;;13.20;99.90;;;;;;5078443;28;20368;-63
2022/07/01 00:27:20;;;;;;;20.02;9.27;;;13.10;99.90;;;;;;5078214;28;20057;-63
2022/07/01 00:29:46;;;;;;;16.25;9.23;;;13.20;99.90;;;;;;5044286;28;20045;-63
2022/07/01 00:32:12;;;;;;;15.20;8.38;;;13.20;99.90;;;;;;5078180;28;20086;-61
2022/07/01 00:34:38;;;;;;;15.70;9.02;;;13.20;99.90;;;;;;5078165;28;20095;-62
2022/07/01 00:37:04;;;;;;;13.95;8.88;;;13.20;99.90;;;;;;5044184;28;20043;-62
2022/07/01 00:39:31;;;;;;;16.67;9.35;;;13.10;99.90;;;;;;5078693;28;20032;-61
2022/07/01 00:42:00;;;;;;;19.25;9.52;;;13.10;99.90;;;;;;5077996;28;20304;-62
2022/07/01 00:44:27;;;;;;;14.90;9.15;;;13.10;99.90;;;;;;5078002;28;20110;-62
2022/07/01 00:46:53;;;;;;;17.60;8.80;;;13.20;99.90;;;;;;5060450;28;20024;-62
2022/07/01 00:49:21;;;;;;;14.00;8.80;;;13.10;99.90;;;;;;5060587;28;20059;-62
2022/07/01 00:51:48;;;;;;;19.90;9.57;;;13.10;99.90;;;;;;5077841;28;20111;-61
2022/07/01 00:54:14;;;;;;;13.80;8.95;;;13.10;99.90;;;;;;5078057;28;20040;-62
2022/07/01 00:56:40;;;;;;;16.20;9.05;;;13.10;99.90;;;;;;5077770;28;20025;-62
2022/07/01 00:59:06;;;;;;;17.77;9.98;;;13.00;99.90;;;;;;5060603;28;20035;-61
2022/07/01 01:01:32;;;;;;;13.93;9.18;;;13.00;99.90;;;;;;5077951;28;20020;-62
2022/07/01 01:03:58;;;;;;;16.92;9.13;;;12.90;99.90;;;;;;5077910;28;20056;-62
2022/07/01 01:06:24;;;;;;;15.80;9.02;;;13.00;99.90;;;;;;5077394;28;20047;-62
2022/07/01 01:08:50;;;;;;;15.25;9.80;;;13.00;99.90;;;;;;5078170;28;20296;-62
2022/07/01 01:11:17;;;;;;;15.82;9.35;;;12.90;99.90;;;;;;5077508;28;20024;-63
2022/07/01 01:13:43;;;;;;;13.90;8.98;;;12.90;99.90;;;;;;5077582;28;20351;-63
2022/07/01 01:16:25;;;;;;;14.93;9.02;;;12.90;99.90;;;;;;5077443;28;20220;-63
2022/07/01 01:18:51;;;;;;;16.40;9.27;;;13.00;99.90;;;;;;5077490;28;20093;-62
2022/07/01 01:21:18;;;;;;;14.77;9.40;;;13.00;99.90;;;;;;5077353;28;20047;-64
2022/07/01 01:23:44;;;;;;;14.73;9.60;;;13.00;99.90;;;;;;5060030;28;20108;-63
2022/07/01 01:26:21;;;;;;;17.98;10.60;;;13.00;99.90;;;;;;5042988;28;20400;-63
2022/07/01 01:28:48;;;;;;;14.15;9.75;;;13.10;99.90;;;;;;5060574;28;20293;-63
2022/07/01 01:31:15;;;;;;;17.55;9.65;;;13.10;99.90;;;;;;5077144;28;20059;-63
2022/07/01 01:33:41;;;;;;;18.30;10.18;;;13.10;99.90;;;;;;5077161;28;20355;-62
2022/07/01 01:36:07;;;;;;;13.57;9.35;;;13.20;99.90;;;;;;5077135;28;20074;-62
2022/07/01 01:38:34;;;;;;;15.23;9.93;;;13.10;99.90;;;;;;5077124;28;20051;-64
2022/07/01 01:41:01;;;;;;;19.45;10.80;;;13.20;99.90;;;;;;5077555;28;20032;-63
2022/07/01 01:43:27;;;;;;;17.23;10.55;;;13.20;99.90;;;;;;5077024;28;20039;-63
2022/07/01 01:45:53;;;;;;;16.48;10.30;;;13.20;99.90;;;;;;5077529;28;20052;-62
2022/07/01 01:48:19;;;;;;;16.63;10.05;;;13.20;99.90;;;;;;5059485;28;20040;-62
2022/07/01 01:50:45;;;;;;;19.40;10.48;;;13.30;99.90;;;;;;5077050;28;20114;-63
2022/07/01 01:53:10;;;;;;;17.30;10.90;;;13.20;99.90;;;;;;5076807;28;20033;-62
2022/07/01 01:55:36;;;;;;;22.10;10.75;;;13.20;99.90;;;;;;5076905;28;20335;-62
2022/07/01 01:58:02;;;;;;;15.98;10.80;;;13.20;99.90;;;;;;5077208;28;20025;-62
2022/07/01 02:00:28;;;;;;;19.95;11.20;;;13.30;99.90;;;;;;5059644;28;20032;-63
2022/07/01 02:02:54;;;;;;;18.20;10.82;;;13.30;99.90;;;;;;5042820;28;20044;-63
2022/07/01 02:05:20;;;;;;;15.43;10.45;;;13.30;99.90;;;;;;5059458;28;20028;-62
2022/07/01 02:07:46;;;;;;;16.60;11.25;;;13.20;99.90;;;;;;5076773;28;20036;-61
2022/07/01 02:10:11;;;;;;;15.65;10.38;;;13.10;99.90;;;;;;5076778;28;20033;-61
2022/07/01 02:12:37;;;;;;;15.75;10.43;;;13.20;99.90;;;;;;5076734;28;20044;-62
2022/07/01 02:15:03;;;;;;;16.73;10.65;;;13.10;99.90;;;;;;5077002;28;20039;-64
2022/07/01 02:17:29;;;;;;;16.90;10.40;;;13.10;99.90;;;;;;5076763;28;20032;-62
2022/07/01 02:19:55;;;;;;;16.13;10.60;;;13.10;99.90;;;;;;5076747;28;20082;-63
2022/07/01 02:22:21;;;;;;;16.10;11.13;;;13.10;99.90;;;;;;5059183;28;20053;-62
2022/07/01 02:24:46;;;;;;;15.63;9.75;;;13.00;99.90;;;;;;5059327;28;20119;-63
2022/07/01 02:27:12;;;;;;;18.63;10.93;;;13.00;99.90;;;;;;5076642;28;20439;-63
2022/07/01 02:29:38;;;;;;;14.98;10.52;;;12.90;99.90;;;;;;5059174;28;20041;-63
2022/07/01 02:32:04;;;;;;;15.82;10.98;;;12.90;99.90;;;;;;5076568;28;20037;-63
2022/07/01 02:34:30;;;;;;;18.63;11.32;;;12.90;99.90;;;;;;5059113;28;20402;-63
2022/07/01 02:36:56;;;;;;;20.10;11.63;;;13.00;99.90;;;;;;5076513;28;20129;-63
2022/07/01 02:39:22;;;;;;;19.13;11.65;;;13.10;99.90;;;;;;5076554;28;20392;-63
2022/07/01 02:44:36;;;;;;;17.38;11.25;;;13.10;99.90;;;;;;5076521;28;20111;-63
2022/07/01 02:47:01;;;;;;;16.65;11.10;;;13.00;99.90;;;;;;5058927;28;20043;-63
2022/07/01 02:49:27;;;;;;;20.08;10.23;;;12.90;99.90;;;;;;5076430;28;20044;-63
2022/07/01 02:51:53;;;;;;;14.77;11.00;;;13.00;99.90;;;;;;5025937;28;20044;-61
2022/07/01 02:54:19;;;;;;;17.05;11.13;;;12.90;99.90;;;;;;5076275;28;20040;-62
2022/07/01 02:56:45;;;;;;;17.25;11.43;;;12.90;99.90;;;;;;5059425;28;20108;-62
2022/07/01 02:59:11;;;;;;;19.15;12.35;;;12.80;99.90;;;;;;5076659;28;20108;-62
2022/07/01 03:01:37;;;;;;;19.25;12.02;;;12.90;99.90;;;;;;5076952;28;20392;-62
2022/07/01 03:04:02;;;;;;;17.30;11.43;;;12.80;99.90;;;;;;5079937;28;20461;-61
2022/07/01 03:06:28;;;;;;;19.95;11.80;;;12.80;99.90;;;;;;5079911;28;20029;-62
2022/07/01 03:08:55;;;;;;;26.27;13.18;;;12.80;99.90;;;;;;5062631;28;20036;-62
2022/07/01 03:11:21;;;;;;;19.40;13.43;;;12.90;99.90;;;;;;5079974;28;20055;-60
2022/07/01 03:13:47;;;;;;;16.25;11.77;;;12.80;99.90;;;;;;5080374;28;20054;-60
2022/07/01 03:16:13;;;;;;;21.52;12.30;;;12.80;99.90;;;;;;5079968;28;20123;-62
2022/07/01 03:18:39;;;;;;;19.55;12.95;;;12.80;99.90;;;;;;5079776;28;20423;-62
2022/07/01 03:21:04;;;;;;;18.33;12.63;;;12.90;99.90;;;;;;5079658;28;20376;-62
2022/07/01 03:23:30;;;;;;;21.40;12.68;;;12.90;99.90;;;;;;5079701;28;20036;-62
2022/07/01 03:25:56;;;;;;;18.77;13.30;;;12.90;99.90;;;;;;5058726;28;20060;-61
2022/07/01 03:28:22;;;;;;;18.10;12.95;;;12.90;99.90;;;;;;5059566;28;20025;-61
2022/07/01 03:30:49;;;;;;;21.58;13.55;;;12.90;99.90;;;;;;5043106;28;20412;-62
2022/07/01 03:33:15;;;;;;;20.63;13.05;;;12.90;99.90;;;;;;5059386;28;20111;-60
2022/07/01 03:35:45;;;;;;;19.52;12.98;;;13.00;99.90;;;;;;5059346;28;20025;-61
2022/07/01 03:38:11;;;;;;;19.85;13.57;;;13.00;99.90;;;;;;5059364;28;20051;-61
2022/07/01 03:40:38;;;;;;;22.05;13.88;;;13.00;99.90;;;;;;5059298;28;20088;-61
2022/07/01 03:43:04;;;;;;;21.70;13.07;;;13.10;99.90;;;;;;5059216;28;20433;-61
2022/07/01 03:45:31;;;;;;;21.27;13.35;;;13.10;99.90;;;;;;5059254;28;20029;-65
2022/07/01 03:47:57;;;;;;;15.73;12.93;;;13.00;99.90;;;;;;5059155;28;20029;-61
2022/07/01 03:50:24;;;;;;;23.38;13.00;;;12.90;99.90;;;;;;5059203;28;20095;-61
2022/07/01 03:55:36;;;;;;;20.23;13.35;;;12.80;99.90;;;;;;5059626;28;20397;-61
2022/07/01 03:58:02;;;;;;;20.42;12.55;;;12.80;99.90;;;;;;5058823;28;20036;-61
2022/07/01 04:00:28;;;;;;;21.48;13.23;;;12.80;99.90;;;;;;5058636;28;20033;-61
2022/07/01 04:02:54;;;;;;;17.73;12.75;;;12.70;99.90;;;;;;5058882;28;20036;-61
2022/07/01 04:05:20;;;;;;;17.92;12.57;;;12.70;99.90;;;;;;5058174;28;20040;-61
2022/07/01 04:07:45;;;;;;;20.23;12.43;;;12.70;99.90;;;;;;5057995;28;20162;-61
2022/07/01 04:10:12;;;;;;;18.30;12.30;;;12.80;99.90;;;;;;5058719;28;20052;-61
2022/07/01 04:12:38;;;;;;;17.85;12.90;;;12.80;99.90;;;;;;5058342;28;20033;-61
2022/07/01 04:15:05;;;;;;;17.15;12.73;;;12.70;99.90;;;;;;5058042;28;20124;-62
2022/07/01 04:17:31;;;;;;;14.73;12.05;;;12.80;99.90;;;;;;5058513;28;20083;-62
2022/07/01 04:19:57;;;;;;;17.58;12.07;;;12.80;99.90;;;;;;5058548;28;20041;-61
2022/07/01 04:22:38;;;;;;;22.65;12.02;;;12.80;99.90;;;;;;5057954;28;20451;-61
2022/07/01 04:25:04;;;;;;;19.35;12.40;;;12.80;99.90;;;;;;5058283;28;20033;-61
2022/07/01 04:27:33;;;;;;;21.05;12.10;;;12.90;99.90;;;;;;5074548;28;20321;-62
2022/07/01 04:30:02;;;;;;;16.23;11.80;;;12.90;99.90;;;;;;5078205;28;20109;-62
2022/07/01 04:32:28;;;;;;;18.70;11.65;;;13.00;99.90;;;;;;5078237;28;20029;-62
2022/07/01 04:34:54;;;;;;;18.65;11.80;;;13.00;99.90;;;;;;5078165;28;20029;-62
2022/07/01 04:37:20;;;;;;;19.40;12.23;;;13.10;99.90;;;;;;5078179;28;20086;-61
2022/07/01 04:39:45;;;;;;;17.67;11.50;;;13.10;99.90;;;;;;5078421;28;20032;-61
2022/07/01 04:42:14;;;;;;;14.13;10.70;;;13.00;99.90;;;;;;5078659;28;20115;-61
2022/07/01 04:44:39;;;;;;;16.63;11.73;;;13.00;99.90;;;;;;5078075;28;20127;-61
2022/07/01 04:47:05;;;;;;;18.20;11.75;;;12.90;99.90;;;;;;5060506;28;20067;-61
2022/07/01 04:49:31;;;;;;;18.23;11.55;;;12.90;99.90;;;;;;5077901;28;20487;-62
2022/07/01 04:51:58;;;;;;;14.85;11.63;;;12.90;99.90;;;;;;5078041;28;20346;-60
2022/07/01 04:54:25;;;;;;;19.85;11.02;;;12.90;99.90;;;;;;5077747;28;20071;-61
2022/07/01 04:56:52;;;;;;;15.70;11.10;;;12.80;99.90;;;;;;5060250;28;20028;-61
2022/07/01 04:59:19;;;;;;;15.98;11.60;;;12.80;99.90;;;;;;5077672;28;20025;-62
2022/07/01 05:01:48;;;;;;;19.80;12.07;;;12.80;99.90;;;;;;5060796;28;20064;-62
2022/07/01 05:04:15;;;;;;;17.10;11.85;;;12.90;99.90;;;;;;5077725;28;20103;-62
2022/07/01 05:06:41;;;;;;;18.58;11.55;;;12.90;99.90;;;;;;5077579;28;20392;-62
2022/07/01 05:09:08;;;;;;;19.65;12.43;;;13.00;99.90;;;;;;5077542;28;20059;-61
2022/07/01 05:11:34;;;;;;;17.15;12.10;;;12.90;99.90;;;;;;5077403;28;20036;-63
2022/07/01 05:14:00;;;;;;;20.65;12.30;;;13.00;99.90;;;;;;5077885;28;20047;-62
2022/07/01 05:16:26;;;;;;;17.65;12.10;;;13.00;99.90;;;;;;5077811;28;20025;-64
2022/07/01 05:24:20;;;;;;;19.83;11.73;;;13.00;99.90;;;;;;5077292;28;20032;-62
2022/07/01 05:26:46;;;;;;;17.27;11.85;;;13.00;99.90;;;;;;5077045;28;20048;-62
2022/07/01 05:29:12;;;;;;;17.23;12.07;;;13.10;99.90;;;;;;5060084;28;20107;-61
2022/07/01 05:31:38;;;;;;;17.48;11.68;;;13.20;99.90;;;;;;5059776;28;20042;-60
2022/07/01 05:34:04;;;;;;;19.75;11.38;;;13.30;99.90;;;;;;5077231;28;20039;-62
2022/07/01 05:36:30;;;;;;;17.15;10.68;;;13.30;99.90;;;;;;5077159;28;20044;-60
2022/07/01 05:38:56;;;;;;;15.75;10.52;;;13.30;99.90;;;;;;5077131;28;20067;-61
2022/07/01 05:41:22;;;;;;;14.70;9.82;;;13.40;99.90;;;;;;5060188;28;20024;-60
2022/07/01 05:43:47;;;;;;;11.82;9.45;;;13.30;99.90;;;;;;5077033;28;20111;-61
2022/07/01 05:46:13;;;;;;;17.85;8.80;;;13.40;99.90;;;;;;5076892;28;20080;-59
2022/07/01 05:48:39;;;;;;;14.82;9.07;;;13.70;99.90;;;;;;5076951;28;20044;-58
2022/07/01 05:51:05;;;;;;;11.00;8.02;;;13.70;99.90;;;;;;5077490;28;20029;-59
2022/07/01 05:53:31;;;;;;;17.80;7.90;;;13.70;99.90;;;;;;5076759;28;20136;-60
2022/07/01 05:55:56;;;;;;;9.73;7.25;;;13.60;99.90;;;;;;5077035;28;20388;-61
2022/07/01 05:58:22;;;;;;;12.07;7.22;;;13.60;99.90;;;;;;5076836;28;20064;-59
2022/07/01 06:00:48;;;;;;;14.32;7.88;;;13.80;99.90;;;;;;5077333;28;20036;-58
2022/07/01 06:03:15;;;;;;;14.40;7.40;;;13.90;99.90;;;;;;5076770;28;20390;-58
2022/07/01 06:05:42;;;;;;;11.05;7.07;;;14.00;99.90;;;;;;5060283;28;20044;-58
2022/07/01 06:08:08;;;;;;;8.57;6.93;;;14.00;99.90;;;;;;5059409;28;20400;-58
2022/07/01 06:10:34;;;;;;;11.75;6.70;;;13.90;99.90;;;;;;5059203;28;20025;-58
2022/07/01 06:13:01;;;;;;;10.90;6.55;;;13.90;99.90;;;;;;5042692;28;20029;-58
2022/07/01 06:15:27;;;;;;;10.98;5.80;;;13.90;99.90;;;;;;5076685;28;20036;-59
2022/07/01 06:17:53;;;;;;;11.13;6.57;;;14.00;99.90;;;;;;5042549;28;20044;-58
2022/07/01 06:20:19;;;;;;;10.52;6.03;;;14.10;99.90;;;;;;5076676;28;20045;-59
2022/07/01 06:22:46;;;;;;;10.27;5.47;;;14.10;99.90;;;;;;5076688;28;20331;-59
2022/07/01 06:25:12;;;;;;;9.10;5.47;;;14.20;99.90;;;;;;5059411;28;20319;-59
2022/07/01 06:27:39;;;;;;;11.05;5.18;;;14.20;99.90;;;;;;5076473;28;20060;-61
2022/07/01 06:30:06;;;;;;;10.60;4.55;;;14.30;99.90;;;;;;5076588;28;20028;-59
2022/07/01 06:32:32;;;;;;;10.95;4.75;;;14.20;99.90;;;;;;5076562;28;20033;-59
2022/07/01 06:34:57;;;;;;;7.93;4.55;;;14.20;99.90;;;;;;5059174;28;20051;-61
2022/07/01 06:37:23;;;;;;;7.07;4.45;;;14.30;99.90;;;;;;5079843;28;20399;-59
2022/07/01 06:39:49;;;;;;;9.95;4.50;;;14.40;99.90;;;;;;5080380;28;20418;-58
2022/07/01 06:42:15;;;;;;;10.63;4.70;;;14.60;99.90;;;;;;5080352;28;20032;-58
2022/07/01 06:44:43;;;;;;;10.88;4.45;;;14.70;99.90;;;;;;5062843;28;20051;-59
2022/07/01 06:47:09;;;;;;;7.80;4.05;;;14.60;99.90;;;;;;5080221;28;20141;-59
2022/07/01 06:49:35;;;;;;;6.55;3.83;;;14.60;99.90;;;;;;5046249;28;20327;-58
2022/07/01 06:52:01;;;;;;;12.88;4.10;;;14.60;99.90;;;;;;5080098;28;20052;-62
2022/07/01 06:54:28;;;;;;;6.88;3.92;;;14.80;99.90;;;;;;5079991;28;20456;-62
2022/07/01 06:56:54;;;;;;;9.65;4.10;;;15.00;99.90;;;;;;5080389;28;20327;-63
2022/07/01 06:59:20;;;;;;;7.88;4.03;;;15.00;99.90;;;;;;5080307;28;20408;-63
2022/07/01 07:01:46;;;;;;;6.68;3.40;;;15.00;99.90;;;;;;5079822;28;20331;-62
2022/07/01 07:04:12;;;;;;;6.95;3.42;;;15.10;99.90;;;;;;5062689;28;20098;-65
2022/07/01 07:06:38;;;;;;;6.45;3.33;;;15.30;99.90;;;;;;5079817;28;20447;-66
2022/07/01 07:09:04;;;;;;;6.10;3.28;;;15.30;99.90;;;;;;5045965;28;20456;-66
2022/07/01 07:11:29;;;;;;;7.18;3.38;;;15.30;99.90;;;;;;5080306;28;20036;-65
2022/07/01 07:13:55;;;;;;;10.57;2.97;;;15.40;99.90;;;;;;5079985;28;20335;-65
2022/07/01 07:16:21;;;;;;;8.32;2.55;;;15.60;99.90;;;;;;5062719;28;20025;-65
2022/07/01 07:18:48;;;;;;;3.70;1.88;;;15.80;99.90;;;;;;5079749;28;20028;-65
2022/07/01 07:21:14;;;;;;;5.60;2.50;;;15.80;99.90;;;;;;5079525;28;20296;-65
2022/07/01 07:23:41;;;;;;;9.75;2.65;;;15.50;99.90;;;;;;5079548;28;20032;-65
2022/07/01 07:26:07;;;;;;;8.20;2.03;;;15.40;99.90;;;;;;5079330;28;20053;-64
2022/07/01 07:28:33;;;;;;;6.90;2.10;;;15.40;99.90;;;;;;5079529;28;20050;-64
2022/07/01 07:30:59;;;;;;;7.88;1.95;;;15.60;99.90;;;;;;5079416;28;20051;-64
2022/07/01 07:33:24;;;;;;;3.45;1.50;;;15.70;99.90;;;;;;5079150;28;20400;-65
2022/07/01 07:35:50;;;;;;;5.13;2.05;;;16.30;99.90;;;;;;5079503;28;20039;-61
2022/07/01 07:38:16;;;;;;;5.10;1.33;;;16.30;99.90;;;;;;5079320;28;20024;-64
2022/07/01 07:40:42;;;;;;;5.38;1.35;;;16.00;99.90;;;;;;5079179;28;20040;-63
2022/07/01 07:43:08;;;;;;;4.95;1.40;;;16.00;99.90;;;;;;5079281;28;20021;-68
2022/07/01 07:45:34;;;;;;;5.10;1.45;;;15.90;99.90;;;;;;5061895;28;20040;-70
2022/07/01 07:48:01;;;;;;;4.80;1.40;;;16.10;99.90;;;;;;5078342;28;20035;-67
2022/07/01 07:50:27;;;;;;;4.18;1.33;;;16.10;99.90;;;;;;5079966;28;20037;-67
2022/07/01 07:52:53;;;;;;;5.38;1.33;;;16.20;99.90;;;;;;5079106;28;20116;-65
2022/07/01 07:55:19;;;;;;;6.03;1.30;;;16.40;99.90;;;;;;5079498;28;20032;-64
2022/07/01 07:57:45;;;;;;;5.38;1.38;;;16.60;99.90;;;;;;5078867;28;20352;-64
2022/07/01 08:00:12;;;;;;;3.15;1.10;;;16.90;99.90;;;;;;5045197;28;20056;-66
2022/07/01 08:02:39;;;;;;;4.35;1.20;;;17.10;99.90;;;;;;5061538;28;20308;-65
2022/07/01 08:05:07;;;;;;;4.70;1.23;;;17.00;99.90;;;;;;5078837;28;20055;-59
2022/07/01 08:07:40;;;;;;;3.25;1.10;;;17.00;99.90;;;;;;5045332;28;20111;-63
2022/07/01 08:10:08;;;;;;;6.03;1.00;;;17.10;99.90;;;;;;5079330;28;20054;-61
2022/07/01 08:12:34;;;;;;;7.82;1.20;;;17.20;99.90;;;;;;5078730;28;20112;-63
2022/07/01 08:15:00;;;;;;;3.55;1.20;;;17.10;99.90;;;;;;5078528;28;20127;-61
2022/07/01 08:17:26;;;;;;;4.47;1.02;;;17.10;99.90;;;;;;5078749;28;20430;-60
2022/07/01 08:19:52;;;;;;;4.63;1.10;;;16.80;99.90;;;;;;5078557;28;20299;-61
2022/07/01 08:22:19;;;;;;;9.63;1.70;;;16.90;99.90;;;;;;5078830;28;20025;-61
2022/07/01 08:24:45;;;;;;;4.30;1.10;;;17.00;99.90;;;;;;5061001;28;20029;-60
2022/07/01 08:27:12;;;;;;;4.07;1.15;;;17.20;99.90;;;;;;5078132;28;20063;-61
2022/07/01 08:29:39;;;;;;;3.55;1.20;;;17.40;99.90;;;;;;5060969;28;20327;-60
2022/07/01 08:32:06;;;;;;;5.88;1.20;;;17.60;99.90;;;;;;5060798;28;20102;-62
2022/07/01 08:34:31;;;;;;;4.00;1.08;;;17.60;99.90;;;;;;5078478;28;20032;-60
2022/07/01 08:36:57;;;;;;;10.05;1.23;;;17.70;99.90;;;;;;5078481;28;20305;-61
2022/07/01 08:39:23;;;;;;;5.53;1.15;;;17.40;99.90;;;;;;5078039;28;20039;-61
2022/07/01 08:41:49;;;;;;;5.05;1.10;;;17.20;99.90;;;;;;5077888;28;20025;-63
2022/07/01 08:44:15;;;;;;;6.40;1.05;;;17.10;99.90;;;;;;5078392;28;20043;-65
2022/07/01 08:46:41;;;;;;;3.17;1.10;;;16.90;99.90;;;;;;5060538;28;20032;-59
2022/07/01 08:49:07;;;;;;;2.60;1.00;;;17.00;99.90;;;;;;5078339;28;20032;-63
2022/07/01 08:51:33;;;;;;;2.75;0.90;;;17.40;99.90;;;;;;5077837;28;20106;-62
2022/07/01 08:53:59;;;;;;;8.52;1.40;;;17.60;99.90;;;;;;5077740;28;20316;-60
2022/07/01 08:56:40;;;;;;;2.42;0.80;;;17.80;99.90;;;;;;5060504;28;20392;-60
2022/07/01 08:59:07;;;;;;;2.67;0.80;;;18.00;99.90;;;;;;5060294;28;20044;-64
2022/07/01 09:01:33;;;;;;;2.88;0.70;;;18.30;99.90;;;;;;5077577;28;20064;-63
2022/07/01 09:04:17;;;;;;;4.70;1.05;;;18.00;99.90;;;;;;5060359;28;20048;-61
2022/07/01 09:06:44;;;;;;;7.10;1.25;;;17.80;99.90;;;;;;5077530;28;20053;-61
2022/07/01 09:09:13;;;;;;;5.18;0.88;;;18.10;99.90;;;;;;5077533;28;20068;-63
2022/07/01 09:11:45;;;;;;;2.90;0.90;;;18.30;99.90;;;;;;5077382;28;20091;-65
2022/07/01 09:14:15;;;;;;;4.90;1.00;;;18.50;99.90;;;;;;5078001;28;20044;-61
2022/07/01 09:16:43;;;;;;;3.38;0.85;;;18.60;99.90;;;;;;5077790;28;20107;-61
2022/07/01 09:19:11;;;;;;;4.32;1.00;;;18.50;99.90;;;;;;5060125;28;20029;-69
2022/07/01 09:21:37;;;;;;;5.03;1.10;;;18.60;99.90;;;;;;5077303;28;20025;-62
2022/07/01 09:24:25;;;;;;;5.68;1.10;;;18.40;99.90;;;;;;5077521;28;20032;-62
2022/07/01 09:26:55;;;;;;;6.32;1.10;;;18.50;99.90;;;;;;5077107;28;20361;-60
2022/07/01 09:29:31;;;;;;;7.55;1.30;;;18.40;99.90;;;;;;5077226;28;20036;-61
2022/07/01 09:31:58;;;;;;;3.50;0.82;;;17.90;99.90;;;;;;5077546;28;20028;-62
2022/07/01 09:34:24;;;;;;;9.02;1.50;;;18.00;99.90;;;;;;5077207;28;20024;-66
2022/07/01 09:36:55;;;;;;;3.13;0.85;;;18.20;99.90;;;;;;5076977;28;20020;-63
2022/07/01 09:39:21;;;;;;;5.50;1.00;;;18.30;99.90;;;;;;5077230;28;20320;-68
2022/07/01 09:41:47;;;;;;;4.15;1.00;;;18.40;99.90;;;;;;5076839;28;20036;-62
2022/07/01 09:44:13;;;;;;;2.88;0.90;;;18.50;99.90;;;;;;5077014;28;20043;-63
2022/07/01 09:46:54;;;;;;;3.92;0.90;;;18.00;99.90;;;;;;5076892;28;20029;-65
2022/07/01 09:49:21;;;;;;;2.80;1.02;;;17.90;99.90;;;;;;5076901;28;20036;-63
2022/07/01 09:51:49;;;;;;;2.50;0.88;;;18.10;99.90;;;;;;5059609;28;20036;-63
2022/07/01 09:54:15;;;;;;;5.97;1.10;;;18.30;99.90;;;;;;5077210;28;20029;-66
2022/07/01 09:56:41;;;;;;;4.18;0.95;;;18.50;99.90;;;;;;5077474;28;20449;-63
2022/07/01 09:59:07;;;;;;;6.80;1.10;;;18.60;99.90;;;;;;5059266;28;20028;-62
2022/07/01 10:01:33;;;;;;;3.35;0.90;;;18.20;99.90;;;;;;5076771;28;20036;-64
2022/07/01 10:04:01;;;;;;;2.92;0.90;;;18.20;99.90;;;;;;5076996;28;20040;-65
2022/07/01 10:06:42;;;;;;;4.53;1.15;;;18.30;99.90;;;;;;5076733;28;20111;-67
2022/07/01 10:09:11;;;;;;;3.55;1.00;;;18.20;99.90;;;;;;5076803;28;20339;-63
2022/07/01 10:11:42;;;;;;;4.38;0.88;;;18.30;99.90;;;;;;5079113;28;20036;-65
2022/07/01 10:14:11;;;;;;;4.55;1.00;;;18.60;99.90;;;;;;5080880;28;20028;-64
2022/07/01 10:16:38;;;;;;;2.42;0.80;;;18.70;99.90;;;;;;5080999;28;20025;-63
2022/07/01 10:19:24;;;;;;;1.55;0.70;;;18.60;99.90;;;;;;5063779;28;20136;-67
2022/07/01 10:21:56;;;;;;;3.75;1.08;;;18.90;99.90;;;;;;5080752;28;20060;-63
2022/07/01 10:24:23;;;;;;;4.82;1.10;;;19.00;99.90;;;;;;5080815;28;20037;-66
2022/07/01 10:26:49;;;;;;;3.28;1.00;;;18.80;99.90;;;;;;5080445;28;20127;-62
2022/07/01 10:29:33;;;;;;;2.42;0.75;;;18.70;99.90;;;;;;5080544;28;20044;-65
2022/07/01 10:32:29;;;;;;;3.88;0.98;;;19.10;99.90;;;;;;5080763;28;20450;-66
2022/07/01 10:35:14;;;;;;;2.60;0.70;;;18.90;99.90;;;;;;5063278;28;20028;-66
2022/07/01 10:38:00;;;;;;;3.88;0.80;;;18.90;99.90;;;;;;5080515;28;20037;-62
2022/07/01 10:40:46;;;;;;;5.38;0.80;;;18.60;99.90;;;;;;5062812;28;20380;-63
2022/07/01 10:43:16;;;;;;;3.45;0.60;;;18.70;99.90;;;;;;5046184;28;20035;-60
2022/07/01 10:45:45;;;;;;;3.17;0.65;;;18.80;99.90;;;;;;5080332;28;20028;-65
2022/07/01 10:48:19;;;;;;;1.60;0.60;;;19.10;99.90;;;;;;5062794;28;20063;-66
2022/07/01 10:50:49;;;;;;;2.38;0.75;;;19.60;99.90;;;;;;5080285;28;20067;-61
2022/07/01 10:53:15;;;;;;;6.03;0.80;;;20.00;99.90;;;;;;5080204;28;20299;-63
2022/07/01 10:55:45;;;;;;;3.53;0.60;;;20.10;99.90;;;;;;5062818;28;20116;-64
2022/07/01 10:58:12;;;;;;;1.23;0.57;;;20.40;99.90;;;;;;5080096;28;20031;-67
2022/07/01 11:00:46;;;;;;;2.78;0.70;;;21.00;99.90;;;;;;5080141;28;20047;-66
2022/07/01 11:03:18;;;;;;;4.45;0.90;;;20.80;99.90;;;;;;5079921;28;20103;-62
2022/07/01 11:05:46;;;;;;;1.80;0.80;;;20.20;99.90;;;;;;5080217;28;20373;-64
2022/07/01 11:08:12;;;;;;;2.97;0.90;;;20.10;99.90;;;;;;5079845;28;20060;-68
2022/07/01 11:10:39;;;;;;;1.90;0.70;;;20.10;99.90;;;;;;5080439;28;20036;-67
2022/07/01 11:13:05;;;;;;;3.70;0.70;;;20.40;99.90;;;;;;5063172;28;20113;-63
2022/07/01 11:15:31;;;;;;;5.43;0.90;;;20.60;99.90;;;;;;5046230;28;20037;-67
2022/07/01 11:17:59;;;;;;;2.03;0.70;;;21.30;99.90;;;;;;5062173;28;20103;-64
2022/07/01 11:20:29;;;;;;;2.00;0.85;;;20.60;99.90;;;;;;5062292;28;20056;-63
2022/07/01 11:22:54;;;;;;;4.22;0.90;;;20.20;99.90;;;;;;5078634;28;20029;-69
2022/07/01 11:25:21;;;;;;;3.20;0.95;;;19.80;99.90;;;;;;5079662;28;20039;-66
2022/07/01 11:27:50;;;;;;;3.55;0.70;;;20.40;99.90;;;;;;5079484;28;20086;-61
2022/07/01 11:30:18;;;;;;;2.28;0.60;;;21.80;99.90;;;;;;5062029;28;20029;-66
2022/07/01 11:32:46;;;;;;;3.25;0.60;;;23.40;99.90;;;;;;5079513;28;20292;-66
2022/07/01 11:41:05;;;;;;;2.72;0.50;;;25.70;99.90;;;;;;5079618;28;20028;-65
2022/07/01 11:43:37;;;;;;;2.78;0.50;;;26.80;99.90;;;;;;5079854;28;20029;-64
2022/07/01 11:46:05;;;;;;;2.30;0.70;;;27.00;99.90;;;;;;5080150;28;20446;-63
2022/07/01 11:48:38;;;;;;;1.88;0.70;;;27.90;96.40;;;;;;5079710;28;20392;-66
2022/07/01 11:51:08;;;;;;;;;;;27.40;94.80;;;;;;5080323;28;20392;-71
2022/07/01 11:53:34;;;;;;;2.17;0.60;;;25.90;98.70;;;;;;5079726;28;19908;-69
2022/07/01 11:56:00;;;;;;;1.70;0.60;;;24.60;99.90;;;;;;5061697;28;20127;-71
2022/07/01 11:58:44;;;;;;;1.73;0.50;;;23.30;99.90;;;;;;5061491;28;20167;-61
2022/07/01 12:01:10;;;;;;;2.63;0.65;;;22.30;99.90;;;;;;5080069;28;20040;-67
2022/07/01 12:03:37;;;;;;;2.03;0.40;;;22.30;99.90;;;;;;5062752;28;20033;-70
2022/07/01 12:06:04;;;;;;;2.15;0.50;;;22.50;99.90;;;;;;5063074;28;20040;-69
2022/07/01 12:08:30;;;;;;;2.42;0.50;;;22.90;99.90;;;;;;5062658;28;20048;-69
2022/07/01 12:10:59;;;;;;;2.67;0.60;;;23.80;99.90;;;;;;5062050;28;20346;-66
2022/07/01 12:13:26;;;;;;;2.17;0.38;;;25.40;99.90;;;;;;5079120;28;20028;-68
2022/07/01 12:15:52;;;;;;;4.80;0.40;;;24.80;99.90;;;;;;5061234;28;20032;-68
2022/07/01 12:18:18;;;;;;;5.78;0.50;;;24.50;99.90;;;;;;5079519;28;20086;-64
2022/07/01 12:20:49;;;;;;;2.80;0.75;;;26.70;99.50;;;;;;5079673;28;20392;-68
2022/07/01 12:23:15;;;;;;;3.05;0.52;;;27.40;96.30;;;;;;5045106;28;20040;-68
2022/07/01 12:25:49;;;;;;;2.97;0.52;;;27.80;95.00;;;;;;5061716;28;20029;-73
2022/07/01 12:28:26;;;;;;;1.55;0.57;;;27.40;93.30;;;;;;5061218;28;20020;-68
2022/07/01 12:31:00;;;;;;;3.67;0.50;;;24.80;97.90;;;;;;5079351;28;20043;-66
2022/07/01 12:33:26;;;;;;;3.13;0.38;;;25.70;98.20;;;;;;5061103;28;20304;-67
2022/07/01 12:35:54;;;;;;;1.15;0.47;;;25.40;96.20;;;;;;5078626;28;20112;-70
2022/07/01 12:38:20;;;;;;;3.13;0.60;;;27.00;95.00;;;;;;5079133;28;20062;-65
2022/07/01 12:40:46;;;;;;;1.67;0.40;;;26.70;94.50;;;;;;5061642;28;20302;-71
2022/07/01 12:43:34;;;;;;;3.22;0.60;;;28.40;91.80;;;;;;5079299;28;20047;-66
2022/07/01 12:46:00;;;;;;;2.33;0.43;;;30.50;84.80;;;;;;5080186;28;20092;-70
2022/07/01 12:48:27;;;;;;;3.20;0.50;;;30.10;80.00;;;;;;5079080;28;20064;-73
2022/07/01 12:50:57;;;;;;;3.10;0.50;;;27.20;85.00;;;;;;5061768;28;20027;-70
2022/07/01 12:53:25;;;;;;;1.92;0.43;;;26.10;90.80;;;;;;5060895;28;20040;-71
2022/07/01 12:55:56;;;;;;;3.70;0.50;;;25.00;93.90;;;;;;5078310;28;20436;-70